createdAt,value
2023-05-25T00:01:00.341Z,6.53
2023-05-25T00:01:45.225Z,6.53
2023-05-25T00:02:45.315Z,6.51
2023-05-25T00:03:45.244Z,6.50
2023-05-25T00:04:45.222Z,6.45
2023-05-25T00:05:45.268Z,6.45
2023-05-25T00:06:45.144Z,6.42
2023-05-25T00:07:45.154Z,6.43
2023-05-25T00:08:45.104Z,6.46
2023-05-25T00:09:45.118Z,6.48
2023-05-25T00:10:45.094Z,6.50
2023-05-25T00:11:45.103Z,6.50
2023-05-25T00:12:45.064Z,6.53
2023-05-25T00:13:45.062Z,6.53
2023-05-25T00:14:45.059Z,6.55
2023-05-25T00:15:45.241Z,6.55
2023-05-25T00:16:45.053Z,6.55
2023-05-25T00:17:45.064Z,6.57
2023-05-25T00:18:45.014Z,6.57
2023-05-25T00:19:45.015Z,6.55
2023-05-25T00:20:44.986Z,6.54
2023-05-25T00:21:44.977Z,6.53
2023-05-25T00:22:44.983Z,6.55
2023-05-25T00:23:44.938Z,6.54
2023-05-25T00:24:44.940Z,6.50
2023-05-25T00:25:45.319Z,6.45
2023-05-25T00:26:44.964Z,6.43
2023-05-25T00:27:44.897Z,6.43
2023-05-25T00:28:44.888Z,6.45
2023-05-25T00:29:44.885Z,6.45
2023-05-25T00:30:44.907Z,6.45
2023-05-25T00:31:44.862Z,6.43
2023-05-25T00:32:44.868Z,6.42
2023-05-25T00:33:44.846Z,6.39
2023-05-25T00:34:44.828Z,6.40
2023-05-25T00:35:45.416Z,6.40
2023-05-25T00:36:44.802Z,6.42
2023-05-25T00:37:44.791Z,6.43
2023-05-25T00:38:44.790Z,6.46
2023-05-25T00:39:44.774Z,6.45
2023-05-25T00:40:44.777Z,6.43
2023-05-25T00:41:44.752Z,6.43
2023-05-25T00:42:44.738Z,6.42
2023-05-25T00:43:44.731Z,6.45
2023-05-25T00:44:44.735Z,6.48
2023-05-25T00:45:44.898Z,6.48
2023-05-25T00:46:44.747Z,6.54
2023-05-25T00:47:44.739Z,6.58
2023-05-25T00:48:44.674Z,6.58
2023-05-25T00:49:44.676Z,6.58
2023-05-25T00:50:44.658Z,6.58
2023-05-25T00:51:44.647Z,6.58
2023-05-25T00:52:44.617Z,6.61
2023-05-25T00:53:44.610Z,6.63
2023-05-25T00:54:44.612Z,6.65
2023-05-25T00:55:44.764Z,6.68
2023-05-25T00:56:44.575Z,6.71
2023-05-25T00:57:44.599Z,6.72
2023-05-25T00:58:44.573Z,6.73
2023-05-25T00:59:44.563Z,6.75
2023-05-25T01:00:44.534Z,6.76
2023-05-25T01:01:44.575Z,6.78
2023-05-25T01:02:44.588Z,6.78
2023-05-25T01:03:44.563Z,6.78
2023-05-25T01:04:44.499Z,6.78
2023-05-25T01:05:44.690Z,6.81
2023-05-25T01:06:44.481Z,6.83
2023-05-25T01:07:44.500Z,6.82
2023-05-25T01:08:44.460Z,6.86
2023-05-25T01:09:44.448Z,6.86
2023-05-25T01:10:44.436Z,6.90
2023-05-25T01:11:44.422Z,6.91
2023-05-25T01:12:44.405Z,6.94
2023-05-25T01:13:44.408Z,6.94
2023-05-25T01:14:44.404Z,6.97
2023-05-25T01:15:44.646Z,6.96
2023-05-25T01:16:44.412Z,6.96
2023-05-25T01:17:44.400Z,6.93
2023-05-25T01:18:44.338Z,6.94
2023-05-25T01:19:47.500Z,6.90
2023-05-25T01:20:44.371Z,6.89
2023-05-25T01:21:44.293Z,6.89
2023-05-25T01:22:44.317Z,6.90
2023-05-25T01:23:44.281Z,6.90
2023-05-25T01:24:44.261Z,6.91
2023-05-25T01:25:44.491Z,6.91
2023-05-25T01:26:44.263Z,6.91
2023-05-25T01:27:44.231Z,6.90
2023-05-25T01:28:44.219Z,6.93
2023-05-25T01:29:44.196Z,6.96
2023-05-25T01:30:44.216Z,6.97
2023-05-25T01:31:44.247Z,6.99
2023-05-25T01:32:44.212Z,7.00
2023-05-25T01:33:44.163Z,7.00
2023-05-25T01:34:44.167Z,6.97
2023-05-25T01:35:44.428Z,6.96
2023-05-25T01:36:44.138Z,7.00
2023-05-25T01:37:44.152Z,6.99
2023-05-25T01:38:44.115Z,6.99
2023-05-25T01:39:44.098Z,7.01
2023-05-25T01:40:44.091Z,7.01
2023-05-25T01:41:44.077Z,7.05
2023-05-25T01:42:44.083Z,7.07
2023-05-25T01:43:44.057Z,7.08
2023-05-25T01:44:44.062Z,7.08
2023-05-25T01:45:44.255Z,7.09
2023-05-25T01:46:44.039Z,7.08
2023-05-25T01:47:44.053Z,7.09
2023-05-25T01:48:44.013Z,7.11
2023-05-25T01:49:43.979Z,7.12
2023-05-25T01:50:43.986Z,7.14
2023-05-25T01:51:44.014Z,7.15
2023-05-25T01:52:43.948Z,7.16
2023-05-25T01:53:43.948Z,7.16
2023-05-25T01:54:43.942Z,7.21
2023-05-25T01:55:44.124Z,7.21
2023-05-25T01:56:43.914Z,7.24
2023-05-25T01:57:43.909Z,7.26
2023-05-25T01:58:43.911Z,7.29
2023-05-25T01:59:43.886Z,7.30
2023-05-25T02:00:43.883Z,7.34
2023-05-25T02:01:43.872Z,7.39
2023-05-25T02:02:43.902Z,7.39
2023-05-25T02:03:43.828Z,7.44
2023-05-25T02:04:43.932Z,7.50
2023-05-25T02:05:44.014Z,7.51
2023-05-25T02:06:43.799Z,7.51
2023-05-25T02:07:43.790Z,7.54
2023-05-25T02:08:43.799Z,7.55
2023-05-25T02:09:43.770Z,7.60
2023-05-25T02:10:43.763Z,7.71
2023-05-25T02:11:43.752Z,7.88
2023-05-25T02:12:43.745Z,7.91
2023-05-25T02:13:43.725Z,7.92
2023-05-25T02:14:43.730Z,7.92
2023-05-25T02:15:43.914Z,7.94
2023-05-25T02:16:43.705Z,7.94
2023-05-25T02:17:43.748Z,7.96
2023-05-25T02:18:43.700Z,7.96
2023-05-25T02:19:43.660Z,7.99
2023-05-25T02:20:43.752Z,8.07
2023-05-25T02:21:43.647Z,8.20
2023-05-25T02:22:43.643Z,8.25
2023-05-25T02:23:43.614Z,8.29
2023-05-25T02:24:43.602Z,8.32
2023-05-25T02:25:43.860Z,8.34
2023-05-25T02:26:43.572Z,8.36
2023-05-25T02:27:43.569Z,8.36
2023-05-25T02:28:43.564Z,8.34
2023-05-25T02:29:43.558Z,8.36
2023-05-25T02:30:43.529Z,8.39
2023-05-25T02:31:43.572Z,8.40
2023-05-25T02:32:43.539Z,8.40
2023-05-25T02:33:43.505Z,8.45
2023-05-25T02:34:43.490Z,8.55
2023-05-25T02:35:43.700Z,8.61
2023-05-25T02:36:43.473Z,8.67
2023-05-25T02:37:43.471Z,8.68
2023-05-25T02:38:43.444Z,8.75
2023-05-25T02:39:43.450Z,8.78
2023-05-25T02:40:43.425Z,8.79
2023-05-25T02:41:43.427Z,8.79
2023-05-25T02:42:43.424Z,8.80
2023-05-25T02:43:43.413Z,8.86
2023-05-25T02:44:43.387Z,8.88
2023-05-25T02:45:43.494Z,8.89
2023-05-25T02:46:43.428Z,8.94
2023-05-25T02:47:43.388Z,8.96
2023-05-25T02:48:43.352Z,8.94
2023-05-25T02:49:43.320Z,8.88
2023-05-25T02:50:43.328Z,8.86
2023-05-25T02:51:43.291Z,8.83
2023-05-25T02:52:43.321Z,8.85
2023-05-25T02:53:43.286Z,8.85
2023-05-25T02:54:43.275Z,8.85
2023-05-25T02:55:43.642Z,8.86
2023-05-25T02:56:43.258Z,8.91
2023-05-25T02:57:43.227Z,8.97
2023-05-25T02:58:43.233Z,8.98
2023-05-25T02:59:43.208Z,9.00
2023-05-25T03:00:43.234Z,9.03
2023-05-25T03:01:43.192Z,9.03
2023-05-25T03:02:43.240Z,9.01
2023-05-25T03:03:43.206Z,9.01
2023-05-25T03:04:43.166Z,9.01
2023-05-25T03:05:43.366Z,8.98
2023-05-25T03:06:43.151Z,8.97
2023-05-25T03:07:43.126Z,8.98
2023-05-25T03:08:43.154Z,8.97
2023-05-25T03:09:43.098Z,8.97
2023-05-25T03:10:43.097Z,8.96
2023-05-25T03:11:43.085Z,8.93
2023-05-25T03:12:43.058Z,8.91
2023-05-25T03:13:43.061Z,8.94
2023-05-25T03:14:43.048Z,8.98
2023-05-25T03:15:43.269Z,8.98
2023-05-25T03:16:43.120Z,8.97
2023-05-25T03:17:43.084Z,8.94
2023-05-25T03:18:43.024Z,8.88
2023-05-25T03:19:42.994Z,8.85
2023-05-25T03:20:42.992Z,8.82
2023-05-25T03:21:42.976Z,8.79
2023-05-25T03:22:42.967Z,8.76
2023-05-25T03:23:42.946Z,8.73
2023-05-25T03:24:42.937Z,8.70
2023-05-25T03:25:43.185Z,8.67
2023-05-25T03:26:42.907Z,8.61
2023-05-25T03:27:42.892Z,8.61
2023-05-25T03:28:42.925Z,8.60
2023-05-25T03:29:42.871Z,8.57
2023-05-25T03:30:42.874Z,8.54
2023-05-25T03:31:42.885Z,8.54
2023-05-25T03:32:42.863Z,8.49
2023-05-25T03:33:42.841Z,8.46
2023-05-25T03:34:42.837Z,8.46
2023-05-25T03:35:43.101Z,8.40
2023-05-25T03:36:42.815Z,8.37
2023-05-25T03:37:42.814Z,8.36
2023-05-25T03:38:42.806Z,8.32
2023-05-25T03:39:42.765Z,8.32
2023-05-25T03:40:42.766Z,8.31
2023-05-25T03:41:42.756Z,8.29
2023-05-25T03:42:42.753Z,8.25
2023-05-25T03:43:42.744Z,8.24
2023-05-25T03:44:42.735Z,8.24
2023-05-25T03:45:42.810Z,8.24
2023-05-25T03:46:42.819Z,8.22
2023-05-25T03:47:42.705Z,8.21
2023-05-25T03:48:42.671Z,8.21
2023-05-25T03:49:42.679Z,8.24
2023-05-25T03:50:42.653Z,8.24
2023-05-25T03:51:42.642Z,8.20
2023-05-25T03:52:42.637Z,8.17
2023-05-25T03:53:42.612Z,8.20
2023-05-25T03:54:42.690Z,8.18
2023-05-25T03:55:42.679Z,8.17
2023-05-25T03:56:42.619Z,8.17
2023-05-25T03:57:42.560Z,8.14
2023-05-25T03:58:42.555Z,8.13
2023-05-25T03:59:42.549Z,8.18
2023-05-25T04:00:42.604Z,8.20
2023-05-25T04:01:42.511Z,8.20
2023-05-25T04:02:42.621Z,8.17
2023-05-25T04:03:42.753Z,8.12
2023-05-25T04:04:42.523Z,8.09
2023-05-25T04:05:42.610Z,8.07
2023-05-25T04:06:42.464Z,8.07
2023-05-25T04:07:42.503Z,8.07
2023-05-25T04:08:42.470Z,8.09
2023-05-25T04:09:42.425Z,8.10
2023-05-25T04:10:42.444Z,8.12
2023-05-25T04:11:42.420Z,8.12
2023-05-25T04:12:42.403Z,8.10
2023-05-25T04:13:42.394Z,8.07
2023-05-25T04:14:42.392Z,8.07
2023-05-25T04:15:42.746Z,8.09
2023-05-25T04:16:42.465Z,8.04
2023-05-25T04:17:42.369Z,8.04
2023-05-25T04:18:42.356Z,8.03
2023-05-25T04:19:42.314Z,8.02
2023-05-25T04:20:42.404Z,8.02
2023-05-25T04:21:42.313Z,7.95
2023-05-25T04:22:42.285Z,7.92
2023-05-25T04:23:42.288Z,7.88
2023-05-25T04:24:42.272Z,7.88
2023-05-25T04:25:42.440Z,7.88
2023-05-25T04:26:42.240Z,7.88
2023-05-25T04:27:42.261Z,7.91
2023-05-25T04:28:42.232Z,7.89
2023-05-25T04:29:42.255Z,7.91
2023-05-25T04:30:42.211Z,7.88
2023-05-25T04:31:42.249Z,7.89
2023-05-25T04:32:43.358Z,7.91
2023-05-25T04:33:42.190Z,7.89
2023-05-25T04:34:42.164Z,7.89
2023-05-25T04:35:42.309Z,7.92
2023-05-25T04:36:42.163Z,7.92
2023-05-25T04:37:42.129Z,7.95
2023-05-25T04:38:42.114Z,7.94
2023-05-25T04:39:42.105Z,7.92
2023-05-25T04:40:42.142Z,7.91
2023-05-25T04:41:42.086Z,7.89
2023-05-25T04:42:42.104Z,7.91
2023-05-25T04:43:52.623Z,7.92
2023-05-25T04:44:42.056Z,7.94
2023-05-25T04:45:42.144Z,7.96
2023-05-25T04:46:42.017Z,8.02
2023-05-25T04:47:42.037Z,8.04
2023-05-25T04:48:42.005Z,8.09
2023-05-25T04:49:42.012Z,8.09
2023-05-25T04:50:42.012Z,8.10
2023-05-25T04:51:42.073Z,8.12
2023-05-25T04:52:41.965Z,8.12
2023-05-25T04:53:41.942Z,8.10
2023-05-25T04:54:42.024Z,8.10
2023-05-25T04:55:42.069Z,8.10
2023-05-25T04:56:41.935Z,8.09
2023-05-25T04:57:41.899Z,8.10
2023-05-25T04:58:41.894Z,8.09
2023-05-25T04:59:41.934Z,8.09
2023-05-25T05:00:42.053Z,8.10
2023-05-25T05:01:41.906Z,8.09
2023-05-25T05:02:41.911Z,8.07
2023-05-25T05:03:41.840Z,8.03
2023-05-25T05:04:41.835Z,8.04
2023-05-25T05:05:41.940Z,8.06
2023-05-25T05:06:41.819Z,8.06
2023-05-25T05:07:41.984Z,8.04
2023-05-25T05:08:41.826Z,8.04
2023-05-25T05:09:41.774Z,8.07
2023-05-25T05:10:41.971Z,8.03
2023-05-25T05:11:42.717Z,8.04
2023-05-25T05:12:42.169Z,8.06
2023-05-25T05:13:41.728Z,8.07
2023-05-25T05:14:41.744Z,8.10
2023-05-25T05:15:42.017Z,8.12
2023-05-25T05:16:41.791Z,8.14
2023-05-25T05:17:41.707Z,8.18
2023-05-25T05:18:41.685Z,8.17
2023-05-25T05:19:41.678Z,8.18
2023-05-25T05:20:41.675Z,8.20
2023-05-25T05:21:41.642Z,8.21
2023-05-25T05:22:41.631Z,8.21
2023-05-25T05:23:41.610Z,8.25
2023-05-25T05:24:41.620Z,8.25
2023-05-25T05:25:41.645Z,8.28
2023-05-25T05:26:56.408Z,8.31
2023-05-25T05:27:41.578Z,8.31
2023-05-25T05:28:41.585Z,8.29
2023-05-25T05:29:41.546Z,8.29
2023-05-25T05:30:41.558Z,8.31
2023-05-25T05:31:41.573Z,8.34
2023-05-25T05:32:41.573Z,8.42
2023-05-25T05:33:41.536Z,8.46
2023-05-25T05:34:41.512Z,8.50
2023-05-25T05:35:41.486Z,8.57
2023-05-25T05:36:55.875Z,8.65
2023-05-25T05:37:41.464Z,8.68
2023-05-25T05:38:41.470Z,8.75
2023-05-25T05:39:41.437Z,8.79
2023-05-25T05:40:41.422Z,8.83
2023-05-25T05:41:41.417Z,8.83
2023-05-25T05:42:41.409Z,8.86
2023-05-25T05:43:41.391Z,8.88
2023-05-25T05:44:41.365Z,8.91
2023-05-25T05:45:41.403Z,8.93
2023-05-25T05:46:41.391Z,8.93
2023-05-25T05:47:41.377Z,8.94
2023-05-25T05:48:41.343Z,8.96
2023-05-25T05:49:41.332Z,8.97
2023-05-25T05:50:42.464Z,8.97
2023-05-25T05:51:41.312Z,9.00
2023-05-25T05:52:41.300Z,9.00
2023-05-25T05:53:41.285Z,9.01
2023-05-25T05:54:41.285Z,9.03
2023-05-25T05:55:41.261Z,9.03
2023-05-25T05:56:41.254Z,9.08
2023-05-25T05:57:41.257Z,9.13
2023-05-25T05:58:41.227Z,9.15
2023-05-25T05:59:41.217Z,9.16
2023-05-25T06:00:41.217Z,9.17
2023-05-25T06:01:41.217Z,9.19
2023-05-25T06:02:41.912Z,9.20
2023-05-25T06:03:41.167Z,9.23
2023-05-25T06:04:41.160Z,9.26
2023-05-25T06:05:41.201Z,9.27
2023-05-25T06:06:41.145Z,9.31
2023-05-25T06:07:41.122Z,9.35
2023-05-25T06:08:41.111Z,9.40
2023-05-25T06:09:41.096Z,9.44
2023-05-25T06:10:41.105Z,9.48
2023-05-25T06:11:41.083Z,9.50
2023-05-25T06:12:41.064Z,9.53
2023-05-25T06:13:41.060Z,9.62
2023-05-25T06:14:41.047Z,9.65
2023-05-25T06:15:41.048Z,9.71
2023-05-25T06:16:41.062Z,9.73
2023-05-25T06:17:41.032Z,9.71
2023-05-25T06:18:41.004Z,9.75
2023-05-25T06:19:41.038Z,9.77
2023-05-25T06:20:41.086Z,9.83
2023-05-25T06:21:40.981Z,9.88
2023-05-25T06:22:40.961Z,9.93
2023-05-25T06:23:40.950Z,9.96
2023-05-25T06:24:40.943Z,10.02
2023-05-25T06:25:40.936Z,10.09
2023-05-25T06:26:40.913Z,10.16
2023-05-25T06:27:40.929Z,10.26
2023-05-25T06:28:40.896Z,10.34
2023-05-25T06:29:40.866Z,10.46
2023-05-25T06:30:40.887Z,10.55
2023-05-25T06:31:40.917Z,10.58
2023-05-25T06:32:40.892Z,10.63
2023-05-25T06:33:40.871Z,10.72
2023-05-25T06:34:40.824Z,10.73
2023-05-25T06:35:40.818Z,10.78
2023-05-25T06:36:41.802Z,10.83
2023-05-25T06:37:40.821Z,10.95
2023-05-25T06:38:40.766Z,11.08
2023-05-25T06:39:40.783Z,11.16
2023-05-25T06:40:40.760Z,11.21
2023-05-25T06:41:40.752Z,11.23
2023-05-25T06:42:40.737Z,11.28
2023-05-25T06:43:40.746Z,11.38
2023-05-25T06:44:40.711Z,11.44
2023-05-25T06:45:40.709Z,11.45
2023-05-25T06:46:40.748Z,11.44
2023-05-25T06:47:40.741Z,11.44
2023-05-25T06:48:40.686Z,11.45
2023-05-25T06:49:40.656Z,11.49
2023-05-25T06:50:40.644Z,11.54
2023-05-25T06:51:40.648Z,11.60
2023-05-25T06:52:40.612Z,11.66
2023-05-25T06:53:40.619Z,11.70
2023-05-25T06:54:40.617Z,11.74
2023-05-25T06:55:40.598Z,11.79
2023-05-25T06:56:40.572Z,11.87
2023-05-25T06:57:40.592Z,11.96
2023-05-25T06:58:40.556Z,12.03
2023-05-25T06:59:40.557Z,12.13
2023-05-25T07:00:40.558Z,12.18
2023-05-25T07:01:40.557Z,12.25
2023-05-25T07:02:40.559Z,12.31
2023-05-25T07:03:40.507Z,12.34
2023-05-25T07:04:40.544Z,12.40
2023-05-25T07:05:40.498Z,12.43
2023-05-25T07:06:40.462Z,12.44
2023-05-25T07:07:40.486Z,12.46
2023-05-25T07:08:40.435Z,12.46
2023-05-25T07:09:40.446Z,12.44
2023-05-25T07:10:40.424Z,12.43
2023-05-25T07:11:40.426Z,12.43
2023-05-25T07:12:40.407Z,12.44
2023-05-25T07:13:40.533Z,12.48
2023-05-25T07:14:40.391Z,12.49
2023-05-25T07:15:40.378Z,12.51
2023-05-25T07:16:40.405Z,12.49
2023-05-25T07:17:40.408Z,12.51
2023-05-25T07:18:40.354Z,12.52
2023-05-25T07:19:40.344Z,12.55
2023-05-25T07:20:40.434Z,12.54
2023-05-25T07:21:40.314Z,12.52
2023-05-25T07:22:40.300Z,12.55
2023-05-25T07:23:40.300Z,12.58
2023-05-25T07:24:40.286Z,12.62
2023-05-25T07:25:40.295Z,12.66
2023-05-25T07:26:40.264Z,12.69
2023-05-25T07:27:40.254Z,12.71
2023-05-25T07:28:40.231Z,12.76
2023-05-25T07:29:40.253Z,12.77
2023-05-25T07:30:40.201Z,12.79
2023-05-25T07:31:40.263Z,12.79
2023-05-25T07:32:40.250Z,12.80
2023-05-25T07:33:40.169Z,12.85
2023-05-25T07:34:40.166Z,12.87
2023-05-25T07:35:40.195Z,12.89
2023-05-25T07:36:40.127Z,12.94
2023-05-25T07:37:40.135Z,12.95
2023-05-25T07:38:40.142Z,12.94
2023-05-25T07:39:40.122Z,12.98
2023-05-25T07:40:40.102Z,12.98
2023-05-25T07:41:40.074Z,13.01
2023-05-25T07:42:40.101Z,13.06
2023-05-25T07:43:40.071Z,13.10
2023-05-25T07:44:40.053Z,13.13
2023-05-25T07:45:40.061Z,13.14
2023-05-25T07:46:40.062Z,13.12
2023-05-25T07:47:40.056Z,13.12
2023-05-25T07:48:39.987Z,13.10
2023-05-25T07:49:40.008Z,13.13
2023-05-25T07:50:39.982Z,13.14
2023-05-25T07:51:39.977Z,13.24
2023-05-25T07:52:39.962Z,13.25
2023-05-25T07:53:39.974Z,13.28
2023-05-25T07:54:40.121Z,13.29
2023-05-25T07:55:39.922Z,13.32
2023-05-25T07:56:39.910Z,13.41
2023-05-25T07:57:39.928Z,13.51
2023-05-25T07:58:39.912Z,13.51
2023-05-25T07:59:39.872Z,13.57
2023-05-25T08:00:39.869Z,13.63
2023-05-25T08:01:39.883Z,13.63
2023-05-25T08:02:40.028Z,13.59
2023-05-25T08:03:48.847Z,13.53
2023-05-25T08:04:39.874Z,13.59
2023-05-25T08:05:39.803Z,13.61
2023-05-25T08:06:39.798Z,13.61
2023-05-25T08:07:42.082Z,13.63
2023-05-25T08:08:39.784Z,13.61
2023-05-25T08:09:39.778Z,13.57
2023-05-25T08:10:39.768Z,13.57
2023-05-25T08:11:39.752Z,13.53
2023-05-25T08:12:48.893Z,13.53
2023-05-25T08:13:39.728Z,13.48
2023-05-25T08:14:39.715Z,13.46
2023-05-25T08:15:39.705Z,13.46
2023-05-25T08:16:39.691Z,13.46
2023-05-25T08:17:39.737Z,13.46
2023-05-25T08:18:39.669Z,13.44
2023-05-25T08:19:39.651Z,13.41
2023-05-25T08:20:39.875Z,13.46
2023-05-25T08:21:39.682Z,13.50
2023-05-25T08:22:39.639Z,13.48
2023-05-25T08:23:39.603Z,13.44
2023-05-25T08:24:39.576Z,13.46
2023-05-25T08:25:39.568Z,13.47
2023-05-25T08:26:53.074Z,13.48
2023-05-25T08:27:39.566Z,13.50
2023-05-25T08:28:39.540Z,13.54
2023-05-25T08:29:39.533Z,13.59
2023-05-25T08:30:39.562Z,13.63
2023-05-25T08:31:39.553Z,13.65
2023-05-25T08:32:39.541Z,13.66
2023-05-25T08:33:39.504Z,13.68
2023-05-25T08:34:39.503Z,13.66
2023-05-25T08:35:39.453Z,13.71
2023-05-25T08:36:39.448Z,13.69
2023-05-25T08:37:39.475Z,13.66
2023-05-25T08:38:39.435Z,13.68
2023-05-25T08:39:39.433Z,13.71
2023-05-25T08:40:39.415Z,13.76
2023-05-25T08:41:39.399Z,13.81
2023-05-25T08:42:39.388Z,13.81
2023-05-25T08:43:39.383Z,13.83
2023-05-25T08:44:39.367Z,13.84
2023-05-25T08:45:45.126Z,13.88
2023-05-25T08:46:39.328Z,13.90
2023-05-25T08:47:39.343Z,13.91
2023-05-25T08:48:42.650Z,13.93
2023-05-25T08:49:39.386Z,13.93
2023-05-25T08:50:39.304Z,13.91
2023-05-25T08:51:39.858Z,13.91
2023-05-25T08:52:39.275Z,13.96
2023-05-25T08:53:39.297Z,13.99
2023-05-25T08:54:39.256Z,14.02
2023-05-25T08:55:39.224Z,14.06
2023-05-25T08:56:39.240Z,14.09
2023-05-25T08:57:39.219Z,14.13
2023-05-25T08:58:39.208Z,14.19
2023-05-25T08:59:39.205Z,14.20
2023-05-25T09:00:39.175Z,14.23
2023-05-25T09:01:39.236Z,14.24
2023-05-25T09:02:39.238Z,14.27
2023-05-25T09:03:39.262Z,14.30
2023-05-25T09:04:39.137Z,14.34
2023-05-25T09:05:39.157Z,14.36
2023-05-25T09:06:39.104Z,14.42
2023-05-25T09:07:39.841Z,14.48
2023-05-25T09:08:39.072Z,14.56
2023-05-25T09:09:39.088Z,14.61
2023-05-25T09:10:39.067Z,14.63
2023-05-25T09:11:41.143Z,14.66
2023-05-25T09:12:39.047Z,14.63
2023-05-25T09:13:39.042Z,14.64
2023-05-25T09:14:39.034Z,14.60
2023-05-25T09:15:39.015Z,14.63
2023-05-25T09:16:39.035Z,14.69
2023-05-25T09:17:39.016Z,14.75
2023-05-25T09:18:38.991Z,14.74
2023-05-25T09:19:38.981Z,14.72
2023-05-25T09:20:39.029Z,14.71
2023-05-25T09:21:38.969Z,14.74
2023-05-25T09:22:38.953Z,14.78
2023-05-25T09:23:38.975Z,14.82
2023-05-25T09:24:38.924Z,14.91
2023-05-25T09:25:38.917Z,14.98
2023-05-25T09:26:38.892Z,15.07
2023-05-25T09:27:38.889Z,15.11
2023-05-25T09:28:38.900Z,15.15
2023-05-25T09:29:38.890Z,15.20
2023-05-25T09:30:38.843Z,15.25
2023-05-25T09:31:38.915Z,15.25
2023-05-25T09:32:38.865Z,15.28
2023-05-25T09:33:38.830Z,15.31
2023-05-25T09:34:38.835Z,15.35
2023-05-25T09:35:38.808Z,15.33
2023-05-25T09:36:38.910Z,15.31
2023-05-25T09:37:39.066Z,15.30
2023-05-25T09:38:38.963Z,15.34
2023-05-25T09:39:38.869Z,15.33
2023-05-25T09:40:38.764Z,15.25
2023-05-25T09:41:38.739Z,15.27
2023-05-25T09:42:38.743Z,15.30
2023-05-25T09:43:46.753Z,15.31
2023-05-25T09:44:38.707Z,15.35
2023-05-25T09:45:38.703Z,15.37
2023-05-25T09:46:38.760Z,15.41
2023-05-25T09:47:38.732Z,15.41
2023-05-25T09:48:38.654Z,15.44
2023-05-25T09:49:38.713Z,15.44
2023-05-25T09:50:38.641Z,15.46
2023-05-25T09:51:38.631Z,15.44
2023-05-25T09:52:38.618Z,15.38
2023-05-25T09:53:38.613Z,15.31
2023-05-25T09:54:38.590Z,15.33
2023-05-25T09:55:52.080Z,15.35
2023-05-25T09:56:38.561Z,15.43
2023-05-25T09:57:38.546Z,15.43
2023-05-25T09:58:38.582Z,15.40
2023-05-25T09:59:38.549Z,15.40
2023-05-25T10:00:38.535Z,15.40
2023-05-25T10:01:38.562Z,15.40
2023-05-25T10:02:38.508Z,15.41
2023-05-25T10:03:40.041Z,15.41
2023-05-25T10:04:38.587Z,15.43
2023-05-25T10:05:38.475Z,15.43
2023-05-25T10:06:38.455Z,15.44
2023-05-25T10:07:38.464Z,15.46
2023-05-25T10:08:38.493Z,15.53
2023-05-25T10:09:38.403Z,15.56
2023-05-25T10:10:38.523Z,15.59
2023-05-25T10:11:38.413Z,15.56
2023-05-25T10:12:38.395Z,15.55
2023-05-25T10:13:38.374Z,15.55
2023-05-25T10:14:38.383Z,15.60
2023-05-25T10:15:38.430Z,15.66
2023-05-25T10:16:38.383Z,15.71
2023-05-25T10:17:38.407Z,15.77
2023-05-25T10:18:38.345Z,15.80
2023-05-25T10:19:38.310Z,15.77
2023-05-25T10:20:38.359Z,15.80
2023-05-25T10:21:38.306Z,15.84
2023-05-25T10:22:38.297Z,15.81
2023-05-25T10:23:38.271Z,15.81
2023-05-25T10:24:38.252Z,15.80
2023-05-25T10:25:38.274Z,15.80
2023-05-25T10:26:38.242Z,15.86
2023-05-25T10:27:38.237Z,15.89
2023-05-25T10:28:38.226Z,15.93
2023-05-25T10:29:38.230Z,15.98
2023-05-25T10:30:38.187Z,16.01
2023-05-25T10:31:38.292Z,16.04
2023-05-25T10:32:38.222Z,16.04
2023-05-25T10:33:38.162Z,16.04
2023-05-25T10:34:38.179Z,16.03
2023-05-25T10:35:46.771Z,15.95
2023-05-25T10:36:38.168Z,15.93
2023-05-25T10:37:38.115Z,15.98
2023-05-25T10:38:38.111Z,16.06
2023-05-25T10:39:38.108Z,16.16
2023-05-25T10:40:38.101Z,16.26
2023-05-25T10:41:38.075Z,16.32
2023-05-25T10:42:38.076Z,16.23
2023-05-25T10:43:38.060Z,16.16
2023-05-25T10:44:38.043Z,16.18
2023-05-25T10:45:38.060Z,16.25
2023-05-25T10:46:38.059Z,16.25
2023-05-25T10:47:38.045Z,16.23
2023-05-25T10:48:37.997Z,16.23
2023-05-25T10:49:37.984Z,16.23
2023-05-25T10:50:37.998Z,16.23
2023-05-25T10:51:37.965Z,16.25
2023-05-25T10:52:37.961Z,16.30
2023-05-25T10:53:37.929Z,16.34
2023-05-25T10:54:37.940Z,16.40
2023-05-25T10:55:37.923Z,16.42
2023-05-25T10:56:37.906Z,16.44
2023-05-25T10:57:37.890Z,16.48
2023-05-25T10:58:37.898Z,16.51
2023-05-25T10:59:37.881Z,16.59
2023-05-25T11:00:37.988Z,16.63
2023-05-25T11:01:37.859Z,16.55
2023-05-25T11:02:37.873Z,16.52
2023-05-25T11:03:37.833Z,16.54
2023-05-25T11:04:37.976Z,16.54
2023-05-25T11:05:37.822Z,16.59
2023-05-25T11:06:37.880Z,16.62
2023-05-25T11:07:37.794Z,16.65
2023-05-25T11:08:37.800Z,16.63
2023-05-25T11:09:37.771Z,16.57
2023-05-25T11:10:37.781Z,16.55
2023-05-25T11:11:37.772Z,16.59
2023-05-25T11:12:37.742Z,16.66
2023-05-25T11:13:39.766Z,16.72
2023-05-25T11:14:37.772Z,16.75
2023-05-25T11:15:37.702Z,16.75
2023-05-25T11:16:37.799Z,16.73
2023-05-25T11:17:37.717Z,16.73
2023-05-25T11:18:37.686Z,16.80
2023-05-25T11:19:37.670Z,16.82
2023-05-25T11:20:37.762Z,16.85
2023-05-25T11:21:37.662Z,16.92
2023-05-25T11:22:37.768Z,17.00
2023-05-25T11:23:37.620Z,17.03
2023-05-25T11:24:37.645Z,17.06
2023-05-25T11:25:37.671Z,17.07
2023-05-25T11:26:37.609Z,17.14
2023-05-25T11:27:37.573Z,17.14
2023-05-25T11:28:37.582Z,17.18
2023-05-25T11:29:37.565Z,17.18
2023-05-25T11:30:37.591Z,17.18
2023-05-25T11:31:41.471Z,17.21
2023-05-25T11:32:37.588Z,17.32
2023-05-25T11:33:37.579Z,17.33
2023-05-25T11:34:37.520Z,17.35
2023-05-25T11:35:37.519Z,17.30
2023-05-25T11:36:37.493Z,17.27
2023-05-25T11:37:37.463Z,17.30
2023-05-25T11:38:37.469Z,17.33
2023-05-25T11:39:37.480Z,17.39
2023-05-25T11:40:40.239Z,17.43
2023-05-25T11:41:37.456Z,17.46
2023-05-25T11:42:37.436Z,17.42
2023-05-25T11:43:37.428Z,17.43
2023-05-25T11:44:37.439Z,17.51
2023-05-25T11:45:37.460Z,17.60
2023-05-25T11:46:37.410Z,17.68
2023-05-25T11:47:38.346Z,17.77
2023-05-25T11:48:37.359Z,17.74
2023-05-25T11:49:37.359Z,17.73
2023-05-25T11:50:37.340Z,17.77
2023-05-25T11:51:37.348Z,17.86
2023-05-25T11:52:37.325Z,17.96
2023-05-25T11:53:37.307Z,18.07
2023-05-25T11:54:37.314Z,18.07
2023-05-25T11:55:37.307Z,18.10
2023-05-25T11:56:37.296Z,18.10
2023-05-25T11:57:37.286Z,18.07
2023-05-25T11:58:37.280Z,18.14
2023-05-25T11:59:37.259Z,18.10
2023-05-25T12:00:37.241Z,18.04
2023-05-25T12:01:37.240Z,18.01
2023-05-25T12:02:37.340Z,18.07
2023-05-25T12:03:37.341Z,17.99
2023-05-25T12:04:37.332Z,17.94
2023-05-25T12:05:37.231Z,17.92
2023-05-25T12:06:37.387Z,17.92
2023-05-25T12:07:37.181Z,17.87
2023-05-25T12:08:37.152Z,17.86
2023-05-25T12:09:37.145Z,17.91
2023-05-25T12:10:37.163Z,17.96
2023-05-25T12:11:37.137Z,17.87
2023-05-25T12:12:37.143Z,17.81
2023-05-25T12:13:37.114Z,17.80
2023-05-25T12:14:37.089Z,17.81
2023-05-25T12:15:37.121Z,17.83
2023-05-25T12:16:37.231Z,17.83
2023-05-25T12:17:37.095Z,17.79
2023-05-25T12:18:37.060Z,17.76
2023-05-25T12:19:37.080Z,17.87
2023-05-25T12:20:37.086Z,17.94
2023-05-25T12:21:37.379Z,17.96
2023-05-25T12:22:37.033Z,18.01
2023-05-25T12:23:37.008Z,18.05
2023-05-25T12:24:37.010Z,18.21
2023-05-25T12:25:49.723Z,18.41
2023-05-25T12:26:36.993Z,18.53
2023-05-25T12:27:36.966Z,18.64
2023-05-25T12:28:36.968Z,18.72
2023-05-25T12:29:36.949Z,18.82
2023-05-25T12:30:36.969Z,18.84
2023-05-25T12:31:36.940Z,18.84
2023-05-25T12:32:36.966Z,18.71
2023-05-25T12:33:36.899Z,18.54
2023-05-25T12:34:36.922Z,18.41
2023-05-25T12:35:36.894Z,18.35
2023-05-25T12:36:36.877Z,18.34
2023-05-25T12:37:36.878Z,18.31
2023-05-25T12:38:36.865Z,18.29
2023-05-25T12:39:36.967Z,18.29
2023-05-25T12:40:36.846Z,18.34
2023-05-25T12:41:36.830Z,18.23
2023-05-25T12:42:36.836Z,18.25
2023-05-25T12:43:36.817Z,18.23
2023-05-25T12:44:36.833Z,18.32
2023-05-25T12:45:36.778Z,18.41
2023-05-25T12:46:36.829Z,18.50
2023-05-25T12:47:36.792Z,18.53
2023-05-25T12:48:36.791Z,18.62
2023-05-25T12:49:36.788Z,18.62
2023-05-25T12:50:37.356Z,18.56
2023-05-25T12:51:36.722Z,18.56
2023-05-25T12:52:36.839Z,18.62
2023-05-25T12:53:36.715Z,18.68
2023-05-25T12:54:36.714Z,18.76
2023-05-25T12:55:36.698Z,18.75
2023-05-25T12:56:36.708Z,18.69
2023-05-25T12:57:36.676Z,18.60
2023-05-25T12:58:36.689Z,18.59
2023-05-25T12:59:36.647Z,18.62
2023-05-25T13:00:36.697Z,18.66
2023-05-25T13:01:36.714Z,18.76
2023-05-25T13:02:36.679Z,18.87
2023-05-25T13:03:36.620Z,18.91
2023-05-25T13:04:36.607Z,18.90
2023-05-25T13:05:36.720Z,18.89